Gerber, California
Current Conditions -  °F | °C
As of 6:54 PM on Monday 20 Oct 2014 (Local Time) from KRBL Reporting Station
Broken Clouds Broken Clouds  
Wind Chill: 18°   Ceiling: 10000
Heat Index: 18°   Visibility: 10mi
Dew Point: 11°   Wind: 9mph
Humidity: 63%   Direction: 160°SSE
Pressure: 29.87"   Gusts: NA
Location:  40.06°N, 122.15°W
Report Text: KRBL 210154Z AUTO 16008KT 10SM BKN100 18/11 A2987 RMK AO2 SLP112 T01830111
Loading
Personal Weather Stations






























Interactive Weather Map
Tropical Storm Tracking
New forecast layout! Learn more

10-Day Weather Forecast

Advertisements
Track Severe Weather on mobile